sensor_id;sensor_type;location;lat;lon;timestamp;temperature;humidity
1680;DHT22;838;51.794;12.258;2024-02-23T00:01:45;12.60;17.80
1680;DHT22;838;51.794;12.258;2024-02-23T00:04:11;12.60;17.50
1680;DHT22;838;51.794;12.258;2024-02-23T00:06:37;12.60;16.80
1680;DHT22;838;51.794;12.258;2024-02-23T00:09:03;12.70;15.90
1680;DHT22;838;51.794;12.258;2024-02-23T00:11:28;12.70;14.80
1680;DHT22;838;51.794;12.258;2024-02-23T00:13:54;12.70;13.10
1680;DHT22;838;51.794;12.258;2024-02-23T00:16:20;12.80;13.70
1680;DHT22;838;51.794;12.258;2024-02-23T00:18:46;12.80;11.60
1680;DHT22;838;51.794;12.258;2024-02-23T00:21:11;12.90;11.70
1680;DHT22;838;51.794;12.258;2024-02-23T00:23:37;13.00;10.50
1680;DHT22;838;51.794;12.258;2024-02-23T00:26:03;13.00;10.60
1680;DHT22;838;51.794;12.258;2024-02-23T00:28:29;13.00;10.00
1680;DHT22;838;51.794;12.258;2024-02-23T00:30:54;13.10;8.90
1680;DHT22;838;51.794;12.258;2024-02-23T00:33:20;13.10;5.40
1680;DHT22;838;51.794;12.258;2024-02-23T00:35:46;13.00;7.00
1680;DHT22;838;51.794;12.258;2024-02-23T00:38:12;13.00;7.50
1680;DHT22;838;51.794;12.258;2024-02-23T00:40:37;13.00;8.00
1680;DHT22;838;51.794;12.258;2024-02-23T00:43:04;13.00;6.90
1680;DHT22;838;51.794;12.258;2024-02-23T00:45:30;13.00;8.30
1680;DHT22;838;51.794;12.258;2024-02-23T00:47:55;12.90;9.40
1680;DHT22;838;51.794;12.258;2024-02-23T00:50:23;12.90;10.00
1680;DHT22;838;51.794;12.258;2024-02-23T00:52:51;12.80;7.80
1680;DHT22;838;51.794;12.258;2024-02-23T00:55:18;12.70;2.50
1680;DHT22;838;51.794;12.258;2024-02-23T00:57:43;12.50;1.00
1680;DHT22;838;51.794;12.258;2024-02-23T01:00:09;12.30;1.00
1680;DHT22;838;51.794;12.258;2024-02-23T01:02:36;12.20;1.00
1680;DHT22;838;51.794;12.258;2024-02-23T01:05:03;12.10;1.00
1680;DHT22;838;51.794;12.258;2024-02-23T01:07:28;12.00;1.00
1680;DHT22;838;51.794;12.258;2024-02-23T01:09:54;11.90;1.00
1680;DHT22;838;51.794;12.258;2024-02-23T01:12:20;11.90;1.00
1680;DHT22;838;51.794;12.258;2024-02-23T01:14:45;11.80;1.00
1680;DHT22;838;51.794;12.258;2024-02-23T01:17:14;11.70;1.00
1680;DHT22;838;51.794;12.258;2024-02-23T01:19:41;11.60;1.00
1680;DHT22;838;51.794;12.258;2024-02-23T01:22:08;11.50;1.00
1680;DHT22;838;51.794;12.258;2024-02-23T01:24:33;11.50;1.00
1680;DHT22;838;51.794;12.258;2024-02-23T01:26:59;11.40;1.00
1680;DHT22;838;51.794;12.258;2024-02-23T01:29:26;11.30;1.00
1680;DHT22;838;51.794;12.258;2024-02-23T01:31:52;11.20;1.00
1680;DHT22;838;51.794;12.258;2024-02-23T01:34:20;11.20;1.00
1680;DHT22;838;51.794;12.258;2024-02-23T01:36:45;11.10;1.00
1680;DHT22;838;51.794;12.258;2024-02-23T01:39:11;11.10;1.00
1680;DHT22;838;51.794;12.258;2024-02-23T01:41:37;11.00;1.00
1680;DHT22;838;51.794;12.258;2024-02-23T01:44:03;10.90;1.00
1680;DHT22;838;51.794;12.258;2024-02-23T01:46:29;10.80;1.00
1680;DHT22;838;51.794;12.258;2024-02-23T01:48:55;10.80;1.00
1680;DHT22;838;51.794;12.258;2024-02-23T01:51:21;10.90;1.00
1680;DHT22;838;51.794;12.258;2024-02-23T01:53:47;10.90;1.00
1680;DHT22;838;51.794;12.258;2024-02-23T01:56:14;10.90;1.00
1680;DHT22;838;51.794;12.258;2024-02-23T01:58:44;10.80;1.00
1680;DHT22;838;51.794;12.258;2024-02-23T02:01:10;10.70;1.00
1680;DHT22;838;51.794;12.258;2024-02-23T02:03:39;10.60;1.00
1680;DHT22;838;51.794;12.258;2024-02-23T02:06:06;10.60;1.00
1680;DHT22;838;51.794;12.258;2024-02-23T02:08:33;10.50;1.00
1680;DHT22;838;51.794;12.258;2024-02-23T02:10:59;10.50;1.00
1680;DHT22;838;51.794;12.258;2024-02-23T02:13:25;10.40;1.00
1680;DHT22;838;51.794;12.258;2024-02-23T02:15:50;10.40;1.00
1680;DHT22;838;51.794;12.258;2024-02-23T02:18:16;10.40;1.00
1680;DHT22;838;51.794;12.258;2024-02-23T02:20:51;10.30;1.00
1680;DHT22;838;51.794;12.258;2024-02-23T02:23:18;10.20;1.00
1680;DHT22;838;51.794;12.258;2024-02-23T02:25:44;10.20;1.00
1680;DHT22;838;51.794;12.258;2024-02-23T02:28:09;10.10;1.00
1680;DHT22;838;51.794;12.258;2024-02-23T02:30:35;10.10;1.00
1680;DHT22;838;51.794;12.258;2024-02-23T02:33:01;10.10;1.00
1680;DHT22;838;51.794;12.258;2024-02-23T02:35:26;10.10;1.00
1680;DHT22;838;51.794;12.258;2024-02-23T02:37:52;10.00;1.00
1680;DHT22;838;51.794;12.258;2024-02-23T02:40:18;9.90;1.30
1680;DHT22;838;51.794;12.258;2024-02-23T02:42:44;9.90;2.00
1680;DHT22;838;51.794;12.258;2024-02-23T02:45:11;9.80;2.80
1680;DHT22;838;51.794;12.258;2024-02-23T02:47:37;9.60;1.80
1680;DHT22;838;51.794;12.258;2024-02-23T02:50:03;9.80;1.70
1680;DHT22;838;51.794;12.258;2024-02-23T02:52:28;9.80;1.00
1680;DHT22;838;51.794;12.258;2024-02-23T02:54:54;9.80;1.00
1680;DHT22;838;51.794;12.258;2024-02-23T02:57:20;9.80;1.00
1680;DHT22;838;51.794;12.258;2024-02-23T02:59:46;9.80;1.00
1680;DHT22;838;51.794;12.258;2024-02-23T03:02:12;9.80;1.00
1680;DHT22;838;51.794;12.258;2024-02-23T03:04:37;9.90;1.00
1680;DHT22;838;51.794;12.258;2024-02-23T03:07:03;9.80;1.00
1680;DHT22;838;51.794;12.258;2024-02-23T03:09:29;9.80;1.00
1680;DHT22;838;51.794;12.258;2024-02-23T03:11:54;9.70;1.00
1680;DHT22;838;51.794;12.258;2024-02-23T03:14:21;9.70;1.00
1680;DHT22;838;51.794;12.258;2024-02-23T03:16:48;9.70;1.00
1680;DHT22;838;51.794;12.258;2024-02-23T03:19:14;9.70;1.00
1680;DHT22;838;51.794;12.258;2024-02-23T03:21:40;9.60;1.00
1680;DHT22;838;51.794;12.258;2024-02-23T03:24:06;9.60;1.00
1680;DHT22;838;51.794;12.258;2024-02-23T03:26:32;9.50;1.00
1680;DHT22;838;51.794;12.258;2024-02-23T03:28:58;9.40;1.00
1680;DHT22;838;51.794;12.258;2024-02-23T03:31:23;9.30;1.80
1680;DHT22;838;51.794;12.258;2024-02-23T03:33:49;9.10;1.30
1680;DHT22;838;51.794;12.258;2024-02-23T03:36:14;9.20;1.60
1680;DHT22;838;51.794;12.258;2024-02-23T03:38:40;9.20;2.20
1680;DHT22;838;51.794;12.258;2024-02-23T03:41:06;9.20;2.30
1680;DHT22;838;51.794;12.258;2024-02-23T03:43:32;9.20;3.00
1680;DHT22;838;51.794;12.258;2024-02-23T03:45:57;9.20;2.40
1680;DHT22;838;51.794;12.258;2024-02-23T03:48:23;9.30;2.70
1680;DHT22;838;51.794;12.258;2024-02-23T03:50:49;9.30;2.90
1680;DHT22;838;51.794;12.258;2024-02-23T03:53:14;9.30;2.10
1680;DHT22;838;51.794;12.258;2024-02-23T03:55:40;9.30;1.70
1680;DHT22;838;51.794;12.258;2024-02-23T03:58:06;9.20;2.60
1680;DHT22;838;51.794;12.258;2024-02-23T04:00:32;9.10;2.30
1680;DHT22;838;51.794;12.258;2024-02-23T04:02:57;9.10;2.50
1680;DHT22;838;51.794;12.258;2024-02-23T04:05:23;9.10;2.50
1680;DHT22;838;51.794;12.258;2024-02-23T04:07:49;9.00;3.20
1680;DHT22;838;51.794;12.258;2024-02-23T04:10:17;9.00;3.30
1680;DHT22;838;51.794;12.258;2024-02-23T04:12:46;9.00;3.80
1680;DHT22;838;51.794;12.258;2024-02-23T04:15:12;9.00;3.90
1680;DHT22;838;51.794;12.258;2024-02-23T04:17:38;8.90;4.00
1680;DHT22;838;51.794;12.258;2024-02-23T04:20:08;8.90;4.00
1680;DHT22;838;51.794;12.258;2024-02-23T04:22:36;8.80;4.90
1680;DHT22;838;51.794;12.258;2024-02-23T04:25:01;8.70;4.80
1680;DHT22;838;51.794;12.258;2024-02-23T04:27:28;8.70;5.60
1680;DHT22;838;51.794;12.258;2024-02-23T04:29:54;8.70;5.00
1680;DHT22;838;51.794;12.258;2024-02-23T04:32:19;8.60;5.20
1680;DHT22;838;51.794;12.258;2024-02-23T04:34:45;8.40;5.20
1680;DHT22;838;51.794;12.258;2024-02-23T04:37:11;8.60;5.00
1680;DHT22;838;51.794;12.258;2024-02-23T04:39:37;8.60;5.30
1680;DHT22;838;51.794;12.258;2024-02-23T04:42:04;8.50;5.50
1680;DHT22;838;51.794;12.258;2024-02-23T04:44:30;8.50;4.60
1680;DHT22;838;51.794;12.258;2024-02-23T04:46:55;8.50;4.10
1680;DHT22;838;51.794;12.258;2024-02-23T04:49:21;8.50;2.70
1680;DHT22;838;51.794;12.258;2024-02-23T04:51:47;8.50;1.70
1680;DHT22;838;51.794;12.258;2024-02-23T04:54:12;8.50;1.00
1680;DHT22;838;51.794;12.258;2024-02-23T04:56:38;8.40;1.00
1680;DHT22;838;51.794;12.258;2024-02-23T04:59:04;8.40;1.00
1680;DHT22;838;51.794;12.258;2024-02-23T05:01:35;8.40;1.00
1680;DHT22;838;51.794;12.258;2024-02-23T05:04:01;8.40;1.00
1680;DHT22;838;51.794;12.258;2024-02-23T05:06:29;8.30;1.00
1680;DHT22;838;51.794;12.258;2024-02-23T05:08:54;8.30;1.00
1680;DHT22;838;51.794;12.258;2024-02-23T05:11:20;8.30;1.00
1680;DHT22;838;51.794;12.258;2024-02-23T05:13:46;8.40;1.00
1680;DHT22;838;51.794;12.258;2024-02-23T05:16:14;8.10;1.00
1680;DHT22;838;51.794;12.258;2024-02-23T05:18:40;8.30;1.00
1680;DHT22;838;51.794;12.258;2024-02-23T05:21:07;8.30;1.00
1680;DHT22;838;51.794;12.258;2024-02-23T05:23:33;8.30;1.30
1680;DHT22;838;51.794;12.258;2024-02-23T05:25:58;8.20;4.80
1680;DHT22;838;51.794;12.258;2024-02-23T05:28:24;8.20;7.10
1680;DHT22;838;51.794;12.258;2024-02-23T05:30:51;8.20;8.50
1680;DHT22;838;51.794;12.258;2024-02-23T05:33:17;8.20;10.20
1680;DHT22;838;51.794;12.258;2024-02-23T05:35:46;8.10;11.40
1680;DHT22;838;51.794;12.258;2024-02-23T05:38:14;8.10;12.20
1680;DHT22;838;51.794;12.258;2024-02-23T05:40:40;8.00;13.70
1680;DHT22;838;51.794;12.258;2024-02-23T05:43:05;7.90;13.40
1680;DHT22;838;51.794;12.258;2024-02-23T05:45:31;7.80;14.10
1680;DHT22;838;51.794;12.258;2024-02-23T05:47:57;7.80;13.40
1680;DHT22;838;51.794;12.258;2024-02-23T05:50:23;7.80;13.00
1680;DHT22;838;51.794;12.258;2024-02-23T05:52:49;7.70;12.70
1680;DHT22;838;51.794;12.258;2024-02-23T05:55:15;7.60;12.70
1680;DHT22;838;51.794;12.258;2024-02-23T05:57:40;7.60;12.20
1680;DHT22;838;51.794;12.258;2024-02-23T06:00:06;7.60;11.30
1680;DHT22;838;51.794;12.258;2024-02-23T06:02:35;7.50;11.00
1680;DHT22;838;51.794;12.258;2024-02-23T06:05:04;7.50;11.10
1680;DHT22;838;51.794;12.258;2024-02-23T06:07:33;7.50;11.00
1680;DHT22;838;51.794;12.258;2024-02-23T06:09:59;7.50;10.40
1680;DHT22;838;51.794;12.258;2024-02-23T06:12:24;7.50;10.60
1680;DHT22;838;51.794;12.258;2024-02-23T06:14:51;7.50;11.10
1680;DHT22;838;51.794;12.258;2024-02-23T06:17:17;7.50;11.50
1680;DHT22;838;51.794;12.258;2024-02-23T06:19:43;7.50;12.40
1680;DHT22;838;51.794;12.258;2024-02-23T06:22:09;7.50;13.10
1680;DHT22;838;51.794;12.258;2024-02-23T06:24:38;7.40;13.70
1680;DHT22;838;51.794;12.258;2024-02-23T06:27:04;7.40;14.20
1680;DHT22;838;51.794;12.258;2024-02-23T06:29:30;7.40;14.60
1680;DHT22;838;51.794;12.258;2024-02-23T06:31:56;7.40;14.80
1680;DHT22;838;51.794;12.258;2024-02-23T06:34:22;7.40;15.00
1680;DHT22;838;51.794;12.258;2024-02-23T06:36:47;7.50;14.60
1680;DHT22;838;51.794;12.258;2024-02-23T06:39:13;7.50;14.30
1680;DHT22;838;51.794;12.258;2024-02-23T06:41:39;7.60;14.00
1680;DHT22;838;51.794;12.258;2024-02-23T06:44:05;7.60;14.50
1680;DHT22;838;51.794;12.258;2024-02-23T06:46:31;7.50;14.20
1680;DHT22;838;51.794;12.258;2024-02-23T06:48:56;7.50;14.30
1680;DHT22;838;51.794;12.258;2024-02-23T06:51:22;7.50;14.80
1680;DHT22;838;51.794;12.258;2024-02-23T06:53:48;7.50;14.80
1680;DHT22;838;51.794;12.258;2024-02-23T06:56:14;7.50;14.80
1680;DHT22;838;51.794;12.258;2024-02-23T06:58:40;7.50;14.40
1680;DHT22;838;51.794;12.258;2024-02-23T07:01:05;7.40;14.20
1680;DHT22;838;51.794;12.258;2024-02-23T07:03:33;7.40;14.80
1680;DHT22;838;51.794;12.258;2024-02-23T07:06:00;7.50;14.60
1680;DHT22;838;51.794;12.258;2024-02-23T07:08:26;7.50;14.50
1680;DHT22;838;51.794;12.258;2024-02-23T07:10:52;7.50;14.00
1680;DHT22;838;51.794;12.258;2024-02-23T07:13:17;7.40;13.80
1680;DHT22;838;51.794;12.258;2024-02-23T07:15:44;7.40;13.70
1680;DHT22;838;51.794;12.258;2024-02-23T07:18:10;7.50;13.40
1680;DHT22;838;51.794;12.258;2024-02-23T07:20:37;7.40;12.30
1680;DHT22;838;51.794;12.258;2024-02-23T07:23:04;7.40;12.30
1680;DHT22;838;51.794;12.258;2024-02-23T07:25:30;7.40;11.90
1680;DHT22;838;51.794;12.258;2024-02-23T07:27:56;7.50;11.50
1680;DHT22;838;51.794;12.258;2024-02-23T07:30:22;7.60;10.90
1680;DHT22;838;51.794;12.258;2024-02-23T07:32:48;7.70;10.10
1680;DHT22;838;51.794;12.258;2024-02-23T07:35:14;7.80;10.10
1680;DHT22;838;51.794;12.258;2024-02-23T07:37:40;7.90;7.90
1680;DHT22;838;51.794;12.258;2024-02-23T07:40:06;8.00;7.50
1680;DHT22;838;51.794;12.258;2024-02-23T07:42:33;8.00;5.00
1680;DHT22;838;51.794;12.258;2024-02-23T07:45:02;8.00;5.10
1680;DHT22;838;51.794;12.258;2024-02-23T07:47:30;8.00;4.90
1680;DHT22;838;51.794;12.258;2024-02-23T07:49:56;8.30;3.10
1680;DHT22;838;51.794;12.258;2024-02-23T07:52:21;8.30;1.80
1680;DHT22;838;51.794;12.258;2024-02-23T07:54:51;8.30;1.00
1680;DHT22;838;51.794;12.258;2024-02-23T07:57:18;8.30;1.00
1680;DHT22;838;51.794;12.258;2024-02-23T07:59:44;8.30;1.00
1680;DHT22;838;51.794;12.258;2024-02-23T08:02:10;8.30;1.00
1680;DHT22;838;51.794;12.258;2024-02-23T08:04:36;8.30;1.00
1680;DHT22;838;51.794;12.258;2024-02-23T08:07:02;8.30;1.00
1680;DHT22;838;51.794;12.258;2024-02-23T08:09:27;8.30;1.00
1680;DHT22;838;51.794;12.258;2024-02-23T08:11:53;8.30;1.00
1680;DHT22;838;51.794;12.258;2024-02-23T08:14:19;8.30;1.00
1680;DHT22;838;51.794;12.258;2024-02-23T08:16:44;8.30;1.00
1680;DHT22;838;51.794;12.258;2024-02-23T08:19:10;8.40;1.00
1680;DHT22;838;51.794;12.258;2024-02-23T08:21:37;8.50;1.00
1680;DHT22;838;51.794;12.258;2024-02-23T08:24:03;8.50;1.00
1680;DHT22;838;51.794;12.258;2024-02-23T08:26:29;8.60;1.00
1680;DHT22;838;51.794;12.258;2024-02-23T08:28:54;8.70;1.00
1680;DHT22;838;51.794;12.258;2024-02-23T08:31:20;8.60;1.00
1680;DHT22;838;51.794;12.258;2024-02-23T08:33:46;8.80;1.00
1680;DHT22;838;51.794;12.258;2024-02-23T08:36:12;8.80;1.00
1680;DHT22;838;51.794;12.258;2024-02-23T08:38:38;8.80;1.00
1680;DHT22;838;51.794;12.258;2024-02-23T08:41:04;8.90;1.00
1680;DHT22;838;51.794;12.258;2024-02-23T08:43:30;9.00;1.00
1680;DHT22;838;51.794;12.258;2024-02-23T08:45:56;9.00;1.00
1680;DHT22;838;51.794;12.258;2024-02-23T08:48:21;9.20;1.00
1680;DHT22;838;51.794;12.258;2024-02-23T08:50:47;9.30;1.00
1680;DHT22;838;51.794;12.258;2024-02-23T08:53:13;9.40;1.00
1680;DHT22;838;51.794;12.258;2024-02-23T08:55:39;9.30;1.00
1680;DHT22;838;51.794;12.258;2024-02-23T08:58:07;9.60;1.00
1680;DHT22;838;51.794;12.258;2024-02-23T09:00:32;9.70;1.00
1680;DHT22;838;51.794;12.258;2024-02-23T09:02:58;9.80;1.00
1680;DHT22;838;51.794;12.258;2024-02-23T09:05:24;9.90;1.00
1680;DHT22;838;51.794;12.258;2024-02-23T09:07:50;10.00;1.00
1680;DHT22;838;51.794;12.258;2024-02-23T09:10:15;10.20;1.00
1680;DHT22;838;51.794;12.258;2024-02-23T09:12:42;10.40;1.00
1680;DHT22;838;51.794;12.258;2024-02-23T09:15:08;10.70;1.00
1680;DHT22;838;51.794;12.258;2024-02-23T09:17:34;11.00;1.00
1680;DHT22;838;51.794;12.258;2024-02-23T09:20:00;11.00;1.00
1680;DHT22;838;51.794;12.258;2024-02-23T09:22:25;11.10;1.00
1680;DHT22;838;51.794;12.258;2024-02-23T09:24:51;11.20;1.00
1680;DHT22;838;51.794;12.258;2024-02-23T09:27:20;11.40;1.00
1680;DHT22;838;51.794;12.258;2024-02-23T09:29:46;11.60;1.00
1680;DHT22;838;51.794;12.258;2024-02-23T09:32:12;11.80;1.00
1680;DHT22;838;51.794;12.258;2024-02-23T09:34:37;11.50;1.00
1680;DHT22;838;51.794;12.258;2024-02-23T09:37:03;11.20;1.00
1680;DHT22;838;51.794;12.258;2024-02-23T09:39:29;11.00;1.00
1680;DHT22;838;51.794;12.258;2024-02-23T09:41:56;10.80;1.00
1680;DHT22;838;51.794;12.258;2024-02-23T09:44:33;10.80;1.00
1680;DHT22;838;51.794;12.258;2024-02-23T09:47:03;10.80;1.00
1680;DHT22;838;51.794;12.258;2024-02-23T09:49:38;10.90;1.00
1680;DHT22;838;51.794;12.258;2024-02-23T09:52:07;11.00;1.00
1680;DHT22;838;51.794;12.258;2024-02-23T09:54:33;11.20;1.00
1680;DHT22;838;51.794;12.258;2024-02-23T09:57:00;11.30;1.00
1680;DHT22;838;51.794;12.258;2024-02-23T09:59:26;11.20;1.00
1680;DHT22;838;51.794;12.258;2024-02-23T10:01:53;11.10;1.00
1680;DHT22;838;51.794;12.258;2024-02-23T10:04:19;11.20;1.00
1680;DHT22;838;51.794;12.258;2024-02-23T10:06:45;11.10;1.00
1680;DHT22;838;51.794;12.258;2024-02-23T10:09:10;11.30;1.00
1680;DHT22;838;51.794;12.258;2024-02-23T10:11:38;11.20;1.00
1680;DHT22;838;51.794;12.258;2024-02-23T10:14:04;11.00;1.00
1680;DHT22;838;51.794;12.258;2024-02-23T10:16:30;11.00;1.00
1680;DHT22;838;51.794;12.258;2024-02-23T10:18:57;10.90;1.00
1680;DHT22;838;51.794;12.258;2024-02-23T10:21:23;10.90;1.00
1680;DHT22;838;51.794;12.258;2024-02-23T10:23:50;10.90;1.00
1680;DHT22;838;51.794;12.258;2024-02-23T10:26:20;10.90;1.00
1680;DHT22;838;51.794;12.258;2024-02-23T10:28:48;11.10;1.00
1680;DHT22;838;51.794;12.258;2024-02-23T10:31:13;11.40;1.00
1680;DHT22;838;51.794;12.258;2024-02-23T10:33:39;11.30;1.00
1680;DHT22;838;51.794;12.258;2024-02-23T10:36:07;11.00;1.00
1680;DHT22;838;51.794;12.258;2024-02-23T10:38:38;11.00;1.00
1680;DHT22;838;51.794;12.258;2024-02-23T10:41:06;10.90;1.00
1680;DHT22;838;51.794;12.258;2024-02-23T10:43:41;10.80;1.00
1680;DHT22;838;51.794;12.258;2024-02-23T10:46:10;11.00;1.00
1680;DHT22;838;51.794;12.258;2024-02-23T10:48:40;11.30;1.00
1680;DHT22;838;51.794;12.258;2024-02-23T10:51:06;11.60;1.00
1680;DHT22;838;51.794;12.258;2024-02-23T10:53:34;11.70;1.00
1680;DHT22;838;51.794;12.258;2024-02-23T10:56:00;11.50;1.00
1680;DHT22;838;51.794;12.258;2024-02-23T10:58:26;11.20;1.00
1680;DHT22;838;51.794;12.258;2024-02-23T11:00:57;11.00;1.00
1680;DHT22;838;51.794;12.258;2024-02-23T11:03:30;11.10;1.00
1680;DHT22;838;51.794;12.258;2024-02-23T11:05:56;11.20;1.00
1680;DHT22;838;51.794;12.258;2024-02-23T11:08:22;11.30;1.00
1680;DHT22;838;51.794;12.258;2024-02-23T11:10:52;11.40;1.00
1680;DHT22;838;51.794;12.258;2024-02-23T11:13:18;11.50;1.00
1680;DHT22;838;51.794;12.258;2024-02-23T11:15:43;11.50;1.00
1680;DHT22;838;51.794;12.258;2024-02-23T11:18:28;11.40;1.00
1680;DHT22;838;51.794;12.258;2024-02-23T11:20:56;11.20;1.00
1680;DHT22;838;51.794;12.258;2024-02-23T11:23:24;11.30;1.00
1680;DHT22;838;51.794;12.258;2024-02-23T11:28:28;11.20;1.00
1680;DHT22;838;51.794;12.258;2024-02-23T11:30:54;11.30;1.00
1680;DHT22;838;51.794;12.258;2024-02-23T11:33:26;11.10;1.00
1680;DHT22;838;51.794;12.258;2024-02-23T11:35:52;11.10;1.00
1680;DHT22;838;51.794;12.258;2024-02-23T11:38:19;11.10;1.00
1680;DHT22;838;51.794;12.258;2024-02-23T11:40:48;11.20;1.00
1680;DHT22;838;51.794;12.258;2024-02-23T11:43:14;11.30;1.00
1680;DHT22;838;51.794;12.258;2024-02-23T11:45:41;11.20;1.00
1680;DHT22;838;51.794;12.258;2024-02-23T11:48:07;11.30;1.00
1680;DHT22;838;51.794;12.258;2024-02-23T11:50:33;11.50;1.00
1680;DHT22;838;51.794;12.258;2024-02-23T11:52:59;11.30;1.00
1680;DHT22;838;51.794;12.258;2024-02-23T11:55:27;11.40;1.00
1680;DHT22;838;51.794;12.258;2024-02-23T11:57:54;11.60;1.00
1680;DHT22;838;51.794;12.258;2024-02-23T12:00:19;11.20;1.00
1680;DHT22;838;51.794;12.258;2024-02-23T12:02:45;11.00;1.00
1680;DHT22;838;51.794;12.258;2024-02-23T12:05:14;10.90;1.00
1680;DHT22;838;51.794;12.258;2024-02-23T12:07:40;11.00;1.00
1680;DHT22;838;51.794;12.258;2024-02-23T12:10:07;10.90;1.00
1680;DHT22;838;51.794;12.258;2024-02-23T12:12:33;10.80;1.00
1680;DHT22;838;51.794;12.258;2024-02-23T12:14:59;10.90;1.00
1680;DHT22;838;51.794;12.258;2024-02-23T12:17:25;11.00;1.00
1680;DHT22;838;51.794;12.258;2024-02-23T12:20:02;11.00;1.00
1680;DHT22;838;51.794;12.258;2024-02-23T12:22:28;11.10;1.00
1680;DHT22;838;51.794;12.258;2024-02-23T12:24:57;11.00;1.00
1680;DHT22;838;51.794;12.258;2024-02-23T12:27:23;11.00;1.00
1680;DHT22;838;51.794;12.258;2024-02-23T12:29:54;11.10;1.00
1680;DHT22;838;51.794;12.258;2024-02-23T12:32:21;11.10;1.00
1680;DHT22;838;51.794;12.258;2024-02-23T12:34:47;10.90;1.00
1680;DHT22;838;51.794;12.258;2024-02-23T12:37:17;10.90;1.00
1680;DHT22;838;51.794;12.258;2024-02-23T12:39:43;11.10;1.00
1680;DHT22;838;51.794;12.258;2024-02-23T12:42:09;11.10;1.00
1680;DHT22;838;51.794;12.258;2024-02-23T12:44:35;11.20;1.00
1680;DHT22;838;51.794;12.258;2024-02-23T12:47:01;11.30;1.00
1680;DHT22;838;51.794;12.258;2024-02-23T12:49:27;11.40;1.00
1680;DHT22;838;51.794;12.258;2024-02-23T12:51:52;11.10;1.00
1680;DHT22;838;51.794;12.258;2024-02-23T12:54:18;10.90;1.00
1680;DHT22;838;51.794;12.258;2024-02-23T12:56:44;10.80;1.00
1680;DHT22;838;51.794;12.258;2024-02-23T12:59:10;10.80;1.00
1680;DHT22;838;51.794;12.258;2024-02-23T13:01:36;10.90;1.00
1680;DHT22;838;51.794;12.258;2024-02-23T13:04:03;11.00;1.00
1680;DHT22;838;51.794;12.258;2024-02-23T13:06:37;11.00;1.00
1680;DHT22;838;51.794;12.258;2024-02-23T13:09:03;10.90;1.00
1680;DHT22;838;51.794;12.258;2024-02-23T13:11:29;10.70;1.00
1680;DHT22;838;51.794;12.258;2024-02-23T13:13:55;10.60;1.00
1680;DHT22;838;51.794;12.258;2024-02-23T13:16:21;10.70;1.00
1680;DHT22;838;51.794;12.258;2024-02-23T13:18:46;11.00;1.00
1680;DHT22;838;51.794;12.258;2024-02-23T13:21:13;11.00;1.00
1680;DHT22;838;51.794;12.258;2024-02-23T13:23:39;10.90;1.00
1680;DHT22;838;51.794;12.258;2024-02-23T13:26:05;10.80;1.00
1680;DHT22;838;51.794;12.258;2024-02-23T13:28:31;10.70;1.00
1680;DHT22;838;51.794;12.258;2024-02-23T13:30:57;10.80;1.00
1680;DHT22;838;51.794;12.258;2024-02-23T13:33:22;10.90;1.00
1680;DHT22;838;51.794;12.258;2024-02-23T13:35:49;10.90;1.00
1680;DHT22;838;51.794;12.258;2024-02-23T13:38:15;10.90;1.00
1680;DHT22;838;51.794;12.258;2024-02-23T13:40:40;10.90;1.00
1680;DHT22;838;51.794;12.258;2024-02-23T13:43:06;10.90;1.00
1680;DHT22;838;51.794;12.258;2024-02-23T13:45:32;11.10;1.00
1680;DHT22;838;51.794;12.258;2024-02-23T13:48:02;11.10;1.00
1680;DHT22;838;51.794;12.258;2024-02-23T13:50:29;10.90;1.00
1680;DHT22;838;51.794;12.258;2024-02-23T13:52:55;10.80;1.00
1680;DHT22;838;51.794;12.258;2024-02-23T13:55:21;10.90;1.00
1680;DHT22;838;51.794;12.258;2024-02-23T13:57:50;10.70;1.00
1680;DHT22;838;51.794;12.258;2024-02-23T14:00:17;10.80;1.00
1680;DHT22;838;51.794;12.258;2024-02-23T14:02:44;10.60;1.00
1680;DHT22;838;51.794;12.258;2024-02-23T14:05:10;10.70;1.00
1680;DHT22;838;51.794;12.258;2024-02-23T14:07:36;10.70;1.00
1680;DHT22;838;51.794;12.258;2024-02-23T14:10:02;10.70;1.00
1680;DHT22;838;51.794;12.258;2024-02-23T14:12:29;10.60;1.00
1680;DHT22;838;51.794;12.258;2024-02-23T14:14:54;10.50;1.00
1680;DHT22;838;51.794;12.258;2024-02-23T14:17:20;10.60;1.00
1680;DHT22;838;51.794;12.258;2024-02-23T14:19:46;10.70;1.00
1680;DHT22;838;51.794;12.258;2024-02-23T14:22:12;10.90;1.00
1680;DHT22;838;51.794;12.258;2024-02-23T14:24:37;10.90;1.00
1680;DHT22;838;51.794;12.258;2024-02-23T14:27:04;10.90;1.00
1680;DHT22;838;51.794;12.258;2024-02-23T14:29:29;10.90;1.00
1680;DHT22;838;51.794;12.258;2024-02-23T14:31:55;10.90;1.00
1680;DHT22;838;51.794;12.258;2024-02-23T14:34:21;10.80;1.00
1680;DHT22;838;51.794;12.258;2024-02-23T14:36:49;10.90;1.00
1680;DHT22;838;51.794;12.258;2024-02-23T14:39:15;10.60;1.00
1680;DHT22;838;51.794;12.258;2024-02-23T14:41:40;10.50;1.00
1680;DHT22;838;51.794;12.258;2024-02-23T14:44:06;10.40;1.00
1680;DHT22;838;51.794;12.258;2024-02-23T14:46:32;10.50;1.00
1680;DHT22;838;51.794;12.258;2024-02-23T14:48:58;10.50;1.00
1680;DHT22;838;51.794;12.258;2024-02-23T14:51:23;10.50;1.00
1680;DHT22;838;51.794;12.258;2024-02-23T14:53:49;10.50;1.00
1680;DHT22;838;51.794;12.258;2024-02-23T14:56:15;10.40;1.00
1680;DHT22;838;51.794;12.258;2024-02-23T14:58:40;10.40;1.00
1680;DHT22;838;51.794;12.258;2024-02-23T15:01:07;10.40;1.00
1680;DHT22;838;51.794;12.258;2024-02-23T15:03:33;10.10;1.00
1680;DHT22;838;51.794;12.258;2024-02-23T15:05:59;10.00;1.00
1680;DHT22;838;51.794;12.258;2024-02-23T15:08:27;10.00;1.00
1680;DHT22;838;51.794;12.258;2024-02-23T15:10:52;10.10;1.00
1680;DHT22;838;51.794;12.258;2024-02-23T15:13:19;10.20;1.00
1680;DHT22;838;51.794;12.258;2024-02-23T15:15:45;10.30;1.00
1680;DHT22;838;51.794;12.258;2024-02-23T15:18:11;10.30;1.00
1680;DHT22;838;51.794;12.258;2024-02-23T15:20:36;10.40;1.00
1680;DHT22;838;51.794;12.258;2024-02-23T15:23:02;10.30;1.00
1680;DHT22;838;51.794;12.258;2024-02-23T15:25:28;10.10;1.00
1680;DHT22;838;51.794;12.258;2024-02-23T15:27:54;10.30;1.00
1680;DHT22;838;51.794;12.258;2024-02-23T15:30:24;10.20;1.00
1680;DHT22;838;51.794;12.258;2024-02-23T15:32:50;10.10;1.00
1680;DHT22;838;51.794;12.258;2024-02-23T15:35:15;10.10;1.00
1680;DHT22;838;51.794;12.258;2024-02-23T15:37:42;10.10;1.00
1680;DHT22;838;51.794;12.258;2024-02-23T15:40:09;10.00;1.00
1680;DHT22;838;51.794;12.258;2024-02-23T15:42:35;10.00;1.00
1680;DHT22;838;51.794;12.258;2024-02-23T15:45:04;9.90;1.00
1680;DHT22;838;51.794;12.258;2024-02-23T15:47:32;9.70;1.00
1680;DHT22;838;51.794;12.258;2024-02-23T15:49:58;9.60;1.00
1680;DHT22;838;51.794;12.258;2024-02-23T15:52:23;9.60;1.00
1680;DHT22;838;51.794;12.258;2024-02-23T15:54:49;9.60;1.00
1680;DHT22;838;51.794;12.258;2024-02-23T15:57:15;9.60;1.00
1680;DHT22;838;51.794;12.258;2024-02-23T15:59:41;9.50;1.00
1680;DHT22;838;51.794;12.258;2024-02-23T16:02:06;9.50;1.00
1680;DHT22;838;51.794;12.258;2024-02-23T16:04:33;9.50;1.00
1680;DHT22;838;51.794;12.258;2024-02-23T16:06:58;9.50;1.00
1680;DHT22;838;51.794;12.258;2024-02-23T16:09:24;9.50;1.00
1680;DHT22;838;51.794;12.258;2024-02-23T16:11:50;9.40;1.00
1680;DHT22;838;51.794;12.258;2024-02-23T16:14:16;9.20;1.00
1680;DHT22;838;51.794;12.258;2024-02-23T16:16:42;9.10;1.00
1680;DHT22;838;51.794;12.258;2024-02-23T16:19:08;9.10;1.00